PWSweather.com
Personal Weather Stations
Station Observations
SUBOTICARS
SuboticaYU

SuboticaYU

Lat: 46.1296717, Lon: 19.641551

Elevation: 361

Station Type: Nexus

http://sumeteo.info

Latest ConditionsUpdated 5:00:00 PM GMT+01:01 Sunday, Mar 29, 2015
Currently Today's Max Today's Min Today's Average
Temperature 55.0°F12.8°C 59.5°F15.3°C 38.5°F3.6°C 48.8°F9.3°C
Dew Point 37.7°F3.2°C 38.3°F3.5°C 30.9°F-0.6°C 35.0°F1.7°C
Winds 3.5 mph NNW5.6 kmh NNW 6.9 mph NNW11.1 kmh NNW - 4.2 mph 6.8 kmh
Wind Gusts 6.9 mph11.1 kmh 15.0 mph24.1 kmh - -
Humidity 52% 74% 41% 60%
Pressure 29.82 in1009.8 mb 29.96 in1014.6 mb 29.82 in1009.8 mb -
Hour Temp Dew Point Humidity Winds Wind Gusts Pressure Precip Precip Rate Daily Precip Total
05:00 PM 55.0°F12.8°C 37.7°F3.2°C 52% 3.5 mph NNW5.6 kmh NNW 6.9 mph11.1 kmh 29.82 in1009.8 mb - 0.00 in0.0 mm 0.00 in0.0 mm
04:50 PM 55.0°F12.8°C 37.7°F3.2°C 52% 3.5 mph WNW5.6 kmh WNW 6.9 mph11.1 kmh 29.83 in1010.2 mb - 0.00 in0.0 mm 0.00 in0.0 mm
04:40 PM 55.6°F13.1°C 38.2°F3.4°C 52% 4.6 mph NW7.4 kmh NW 3.5 mph5.6 kmh 29.83 in1010.2 mb - 0.00 in0.0 mm 0.00 in0.0 mm
04:30 PM 56.3°F13.5°C 37.9°F3.3°C 50% 5.8 mph WNW9.3 kmh WNW 6.9 mph11.1 kmh 29.83 in1010.2 mb - 0.00 in0.0 mm 0.00 in0.0 mm
04:20 PM 56.7°F13.7°C 37.7°F3.2°C 49% 5.8 mph WNW9.3 kmh WNW 11.5 mph18.5 kmh 29.83 in1010.2 mb - 0.00 in0.0 mm 0.00 in0.0 mm
04:10 PM 57.0°F13.9°C 37.5°F3.1°C 48% 5.8 mph NNW9.3 kmh NNW 8.1 mph13.0 kmh 29.82 in1009.8 mb - 0.00 in0.0 mm 0.00 in0.0 mm
04:00 PM 57.2°F14.0°C 37.7°F3.2°C 48% 4.6 mph 7.4 kmh 9.2 mph14.8 kmh 29.82 in1009.8 mb - 0.00 in0.0 mm 0.00 in0.0 mm
03:50 PM 56.8°F13.8°C 37.3°F2.9°C 48% 6.9 mph WNW11.1 kmh WNW 6.9 mph11.1 kmh 29.83 in1010.2 mb - 0.00 in0.0 mm 0.00 in0.0 mm
03:40 PM 56.7°F13.7°C 36.6°F2.6°C 47% 5.8 mph NW9.3 kmh NW 6.9 mph11.1 kmh 29.83 in1010.2 mb - 0.00 in0.0 mm 0.00 in0.0 mm
03:30 PM 56.8°F13.8°C 36.8°F2.7°C 47% 6.9 mph W11.1 kmh W 6.9 mph11.1 kmh 29.83 in1010.2 mb - 0.00 in0.0 mm 0.00 in0.0 mm
03:20 PM 57.2°F14.0°C 36.6°F2.6°C 46% 5.8 mph WNW9.3 kmh WNW 9.2 mph14.8 kmh 29.83 in1010.2 mb - 0.00 in0.0 mm 0.00 in0.0 mm
03:10 PM 57.6°F14.2°C 36.9°F2.7°C 46% 4.6 mph W7.4 kmh W 8.1 mph13.0 kmh 29.84 in1010.5 mb - 0.00 in0.0 mm 0.00 in0.0 mm
03:00 PM 58.1°F14.5°C 36.9°F2.7°C 45% 4.6 mph W7.4 kmh W 8.1 mph13.0 kmh 29.84 in1010.5 mb - 0.00 in0.0 mm 0.00 in0.0 mm
02:50 PM 58.1°F14.5°C 36.9°F2.7°C 45% 4.6 mph W7.4 kmh W 4.6 mph7.4 kmh 29.84 in1010.5 mb - 0.00 in0.0 mm 0.00 in0.0 mm
02:40 PM 58.1°F14.5°C 36.9°F2.7°C 45% 4.6 mph NW7.4 kmh NW 5.8 mph9.3 kmh 29.84 in1010.5 mb - 0.00 in0.0 mm 0.00 in0.0 mm
02:30 PM 58.8°F14.9°C 36.9°F2.7°C 44% 4.6 mph W7.4 kmh W 8.1 mph13.0 kmh 29.84 in1010.5 mb - 0.00 in0.0 mm 0.00 in0.0 mm
02:20 PM 58.8°F14.9°C 37.5°F3.1°C 45% 4.6 mph WNW7.4 kmh WNW 6.9 mph11.1 kmh 29.84 in1010.5 mb - 0.00 in0.0 mm 0.00 in0.0 mm
02:10 PM 59.2°F15.1°C 37.3°F2.9°C 44% 5.8 mph W9.3 kmh W 10.4 mph16.7 kmh 29.86 in1011.2 mb - 0.00 in0.0 mm 0.00 in0.0 mm
02:00 PM 59.5°F15.3°C 36.4°F2.4°C 42% 5.8 mph NW9.3 kmh NW 13.8 mph22.2 kmh 29.86 in1011.2 mb - 0.00 in0.0 mm 0.00 in0.0 mm
01:50 PM 58.3°F14.6°C 36.4°F2.4°C 44% 5.8 mph W9.3 kmh W 5.8 mph9.3 kmh 29.85 in1010.8 mb - 0.00 in0.0 mm 0.00 in0.0 mm
01:40 PM 58.8°F14.9°C 35.8°F2.1°C 42% 4.6 mph NW7.4 kmh NW 8.1 mph13.0 kmh 29.85 in1010.8 mb - 0.00 in0.0 mm 0.00 in0.0 mm
01:30 PM 58.1°F14.5°C 35.1°F1.7°C 42% 5.8 mph NNW9.3 kmh NNW 4.6 mph7.4 kmh 29.87 in1011.5 mb - 0.00 in0.0 mm 0.00 in0.0 mm
01:20 PM 58.3°F14.6°C 34.7°F1.5°C 41% 6.9 mph NNW11.1 kmh NNW 10.4 mph16.7 kmh 29.87 in1011.5 mb - 0.00 in0.0 mm 0.00 in0.0 mm
01:10 PM 58.3°F14.6°C 34.7°F1.5°C 41% 5.8 mph NW9.3 kmh NW 5.8 mph9.3 kmh 29.87 in1011.5 mb - 0.00 in0.0 mm 0.00 in0.0 mm
01:00 PM 58.8°F14.9°C 35.8°F2.1°C 42% 4.6 mph WNW7.4 kmh WNW 4.6 mph7.4 kmh 29.87 in1011.5 mb - 0.00 in0.0 mm 0.00 in0.0 mm
12:50 PM 58.1°F14.5°C 35.7°F2.1°C 43% 5.8 mph NW9.3 kmh NW 5.8 mph9.3 kmh 29.88 in1011.9 mb - 0.00 in0.0 mm 0.00 in0.0 mm
12:40 PM 57.4°F14.1°C 35.0°F1.7°C 43% 6.9 mph NNW11.1 kmh NNW 11.5 mph18.5 kmh 29.88 in1011.9 mb - 0.00 in0.0 mm 0.00 in0.0 mm
12:30 PM 57.4°F14.1°C 35.6°F2.0°C 44% 5.8 mph NW9.3 kmh NW 9.2 mph14.8 kmh 29.89 in1012.2 mb - 0.00 in0.0 mm 0.00 in0.0 mm
12:20 PM 57.4°F14.1°C 35.6°F2.0°C 44% 5.8 mph NW9.3 kmh NW 5.8 mph9.3 kmh 29.89 in1012.2 mb - 0.00 in0.0 mm 0.00 in0.0 mm
12:10 PM 56.8°F13.8°C 34.0°F1.1°C 42% 6.9 mph NNW11.1 kmh NNW 9.2 mph14.8 kmh 29.90 in1012.5 mb - 0.00 in0.0 mm 0.00 in0.0 mm
12:00 PM 56.1°F13.4°C 34.5°F1.4°C 44% 5.8 mph ENE9.3 kmh ENE 8.1 mph13.0 kmh 29.90 in1012.5 mb - 0.00 in0.0 mm 0.00 in0.0 mm
11:50 AM 56.1°F13.4°C 32.7°F0.4°C 41% 6.9 mph NNW11.1 kmh NNW 15.0 mph24.1 kmh 29.91 in1012.9 mb - 0.00 in0.0 mm 0.00 in0.0 mm
11:40 AM 56.7°F13.7°C 35.0°F1.7°C 44% 5.8 mph NNW9.3 kmh NNW 10.4 mph16.7 kmh 29.91 in1012.9 mb - 0.00 in0.0 mm 0.00 in0.0 mm
11:30 AM 55.8°F13.2°C 35.3°F1.8°C 46% 6.9 mph NNE11.1 kmh NNE 8.1 mph13.0 kmh 29.91 in1012.9 mb - 0.00 in0.0 mm 0.00 in0.0 mm
11:20 AM 55.6°F13.1°C 36.2°F2.3°C 48% 5.8 mph 9.3 kmh 4.6 mph7.4 kmh 29.91 in1012.9 mb - 0.00 in0.0 mm 0.00 in0.0 mm
11:10 AM 54.7°F12.6°C 34.8°F1.6°C 47% 4.6 mph NNW7.4 kmh NNW 8.1 mph13.0 kmh 29.92 in1013.2 mb - 0.00 in0.0 mm 0.00 in0.0 mm
11:00 AM 54.5°F12.5°C 36.2°F2.3°C 50% 5.8 mph NNW9.3 kmh NNW 5.8 mph9.3 kmh 29.92 in1013.2 mb - 0.00 in0.0 mm 0.00 in0.0 mm
10:50 AM 53.8°F12.1°C 34.5°F1.4°C 48% 6.9 mph NNE11.1 kmh NNE 9.2 mph14.8 kmh 29.92 in1013.2 mb - 0.00 in0.0 mm 0.00 in0.0 mm
10:40 AM 53.1°F11.7°C 35.4°F1.9°C 51% 6.9 mph NE11.1 kmh NE 10.4 mph16.7 kmh 29.92 in1013.2 mb - 0.00 in0.0 mm 0.00 in0.0 mm
10:30 AM 53.2°F11.8°C 36.5°F2.5°C 53% 6.9 mph WNW11.1 kmh WNW 6.9 mph11.1 kmh 29.93 in1013.5 mb - 0.00 in0.0 mm 0.00 in0.0 mm
10:20 AM 52.7°F11.5°C 36.0°F2.2°C 53% 6.9 mph NW11.1 kmh NW 9.2 mph14.8 kmh 29.93 in1013.5 mb - 0.00 in0.0 mm 0.00 in0.0 mm
10:10 AM 52.3°F11.3°C 37.5°F3.1°C 57% 5.8 mph NW9.3 kmh NW 9.2 mph14.8 kmh 29.93 in1013.5 mb - 0.00 in0.0 mm 0.00 in0.0 mm
10:00 AM 52.0°F11.1°C 36.8°F2.7°C 56% 5.8 mph NNW9.3 kmh NNW 8.1 mph13.0 kmh 29.93 in1013.5 mb - 0.00 in0.0 mm 0.00 in0.0 mm
09:50 AM 51.8°F11.0°C 38.3°F3.5°C 60% 4.6 mph NW7.4 kmh NW 9.2 mph14.8 kmh 29.94 in1013.9 mb - 0.00 in0.0 mm 0.00 in0.0 mm
09:40 AM 50.5°F10.3°C 37.6°F3.1°C 61% 4.6 mph NW7.4 kmh NW 9.2 mph14.8 kmh 29.94 in1013.9 mb - 0.00 in0.0 mm 0.00 in0.0 mm
09:30 AM 50.2°F10.1°C 37.7°F3.2°C 62% 4.6 mph NW7.4 kmh NW 8.1 mph13.0 kmh 29.95 in1014.2 mb - 0.00 in0.0 mm 0.00 in0.0 mm
09:20 AM 50.2°F10.1°C 38.1°F3.4°C 63% 4.6 mph NNW7.4 kmh NNW 9.2 mph14.8 kmh 29.95 in1014.2 mb - 0.00 in0.0 mm 0.00 in0.0 mm
09:10 AM 49.5°F9.7°C 37.4°F3.0°C 63% 5.8 mph NW9.3 kmh NW 6.9 mph11.1 kmh 29.95 in1014.2 mb - 0.00 in0.0 mm 0.00 in0.0 mm
09:00 AM 48.7°F9.3°C 37.5°F3.1°C 65% 5.8 mph NNW9.3 kmh NNW 6.9 mph11.1 kmh 29.95 in1014.2 mb - 0.00 in0.0 mm 0.00 in0.0 mm
08:50 AM 48.0°F8.9°C 37.2°F2.9°C 66% 4.6 mph NW7.4 kmh NW 6.9 mph11.1 kmh 29.94 in1013.9 mb - 0.00 in0.0 mm 0.00 in0.0 mm
08:40 AM 46.9°F8.3°C 36.5°F2.5°C 67% 5.8 mph W9.3 kmh W 6.9 mph11.1 kmh 29.94 in1013.9 mb - 0.00 in0.0 mm 0.00 in0.0 mm
08:30 AM 46.6°F8.1°C 36.6°F2.6°C 68% 4.6 mph WNW7.4 kmh WNW 6.9 mph11.1 kmh 29.95 in1014.2 mb - 0.00 in0.0 mm 0.00 in0.0 mm
08:20 AM 45.7°F7.6°C 35.7°F2.1°C 68% 5.8 mph NW9.3 kmh NW 6.9 mph11.1 kmh 29.95 in1014.2 mb - 0.00 in0.0 mm 0.00 in0.0 mm
08:10 AM 45.1°F7.3°C 35.6°F2.0°C 69% 4.6 mph 7.4 kmh 8.1 mph13.0 kmh 29.95 in1014.2 mb - 0.00 in0.0 mm 0.00 in0.0 mm
08:00 AM 44.2°F6.8°C 35.1°F1.7°C 70% 4.6 mph NNW7.4 kmh NNW 9.2 mph14.8 kmh 29.95 in1014.2 mb - 0.00 in0.0 mm 0.00 in0.0 mm
07:50 AM 43.7°F6.5°C 34.6°F1.4°C 70% 4.6 mph S7.4 kmh S 9.2 mph14.8 kmh 29.95 in1014.2 mb - 0.00 in0.0 mm 0.00 in0.0 mm
07:40 AM 43.2°F6.2°C 34.0°F1.1°C 70% 4.6 mph NW7.4 kmh NW 9.2 mph14.8 kmh 29.95 in1014.2 mb - 0.00 in0.0 mm 0.00 in0.0 mm
07:30 AM 42.3°F5.7°C 33.5°F0.8°C 71% 3.5 mph NW5.6 kmh NW 5.8 mph9.3 kmh 29.94 in1013.9 mb - 0.00 in0.0 mm 0.00 in0.0 mm
07:20 AM 41.5°F5.3°C 33.2°F0.7°C 72% 3.5 mph W5.6 kmh W 4.6 mph7.4 kmh 29.94 in1013.9 mb - 0.00 in0.0 mm 0.00 in0.0 mm
07:10 AM 41.0°F5.0°C 32.7°F0.4°C 72% 4.6 mph NNE7.4 kmh NNE 5.8 mph9.3 kmh 29.93 in1013.5 mb - 0.00 in0.0 mm 0.00 in0.0 mm
07:00 AM 40.8°F4.9°C 32.8°F0.4°C 73% 2.3 mph NW3.7 kmh NW 5.8 mph9.3 kmh 29.93 in1013.5 mb - 0.00 in0.0 mm 0.00 in0.0 mm
06:50 AM 40.3°F4.6°C 32.3°F0.2°C 73% 3.5 mph NW5.6 kmh NW 3.5 mph5.6 kmh 29.93 in1013.5 mb - 0.00 in0.0 mm 0.00 in0.0 mm
06:40 AM 40.1°F4.5°C 32.1°F0.1°C 73% 3.5 mph WNW5.6 kmh WNW 4.6 mph7.4 kmh 29.93 in1013.5 mb - 0.00 in0.0 mm 0.00 in0.0 mm
06:30 AM 39.4°F4.1°C 31.8°F-0.1°C 74% 3.5 mph NNW5.6 kmh NNW 8.1 mph13.0 kmh 29.93 in1013.5 mb - 0.00 in0.0 mm 0.00 in0.0 mm
06:20 AM 38.5°F3.6°C 30.9°F-0.6°C 74% 2.3 mph NNW3.7 kmh NNW 6.9 mph11.1 kmh 29.93 in1013.5 mb - 0.00 in0.0 mm 0.00 in0.0 mm
06:10 AM 38.5°F3.6°C 30.9°F-0.6°C 74% 2.3 mph NW3.7 kmh NW 3.5 mph5.6 kmh 29.92 in1013.2 mb - 0.00 in0.0 mm 0.00 in0.0 mm
06:00 AM 38.7°F3.7°C 31.1°F-0.5°C 74% 2.3 mph NNW3.7 kmh NNW 3.5 mph5.6 kmh 29.92 in1013.2 mb - 0.00 in0.0 mm 0.00 in0.0 mm
05:50 AM 38.7°F3.7°C 31.1°F-0.5°C 74% 2.3 mph NW3.7 kmh NW 3.5 mph5.6 kmh 29.93 in1013.5 mb - 0.00 in0.0 mm 0.00 in0.0 mm
05:40 AM 38.7°F3.7°C 31.1°F-0.5°C 74% 3.5 mph NNW5.6 kmh NNW 3.5 mph5.6 kmh 29.93 in1013.5 mb - 0.00 in0.0 mm 0.00 in0.0 mm
05:30 AM 38.7°F3.7°C 31.1°F-0.5°C 74% 2.3 mph NNW3.7 kmh NNW 2.3 mph3.7 kmh 29.93 in1013.5 mb - 0.00 in0.0 mm 0.00 in0.0 mm
05:20 AM 38.5°F3.6°C 30.9°F-0.6°C 74% 1.2 mph NW1.9 kmh NW 3.5 mph5.6 kmh 29.93 in1013.5 mb - 0.00 in0.0 mm 0.00 in0.0 mm
05:10 AM 38.5°F3.6°C 30.9°F-0.6°C 74% 1.2 mph NW1.9 kmh NW 2.3 mph3.7 kmh 29.91 in1012.9 mb - 0.00 in0.0 mm 0.00 in0.0 mm
05:00 AM 38.7°F3.7°C 31.1°F-0.5°C 74% 2.3 mph NW3.7 kmh NW 2.3 mph3.7 kmh 29.91 in1012.9 mb - 0.00 in0.0 mm 0.00 in0.0 mm
04:50 AM 38.7°F3.7°C 31.1°F-0.5°C 74% 2.3 mph NNE3.7 kmh NNE 3.5 mph5.6 kmh 29.93 in1013.5 mb - 0.00 in0.0 mm 0.00 in0.0 mm
04:40 AM 38.7°F3.7°C 31.1°F-0.5°C 74% 2.3 mph NNW3.7 kmh NNW 3.5 mph5.6 kmh 29.93 in1013.5 mb - 0.00 in0.0 mm 0.00 in0.0 mm
04:30 AM 38.8°F3.8°C 30.9°F-0.6°C 73% 2.3 mph NW3.7 kmh NW 3.5 mph5.6 kmh 29.93 in1013.5 mb - 0.00 in0.0 mm 0.00 in0.0 mm
04:20 AM 39.4°F4.1°C 31.4°F-0.3°C 73% 2.3 mph NW3.7 kmh NW 4.6 mph7.4 kmh 29.93 in1013.5 mb - 0.00 in0.0 mm 0.00 in0.0 mm
04:10 AM 39.6°F4.2°C 31.6°F-0.2°C 73% 2.3 mph NW3.7 kmh NW 2.3 mph3.7 kmh 29.93 in1013.5 mb - 0.00 in0.0 mm 0.00 in0.0 mm
04:00 AM 39.7°F4.3°C 31.8°F-0.1°C 73% 2.3 mph NNW3.7 kmh NNW 2.3 mph3.7 kmh 29.93 in1013.5 mb - 0.00 in0.0 mm 0.00 in0.0 mm
03:50 AM 40.5°F4.7°C 32.5°F0.3°C 73% 1.2 mph NW1.9 kmh NW 3.5 mph5.6 kmh 29.93 in1013.5 mb - 0.00 in0.0 mm 0.00 in0.0 mm
03:40 AM 41.0°F5.0°C 32.7°F0.4°C 72% 1.2 mph WNW1.9 kmh WNW 2.3 mph3.7 kmh 29.93 in1013.5 mb - 0.00 in0.0 mm 0.00 in0.0 mm
03:30 AM 41.5°F5.3°C 33.2°F0.7°C 72% 2.3 mph WNW3.7 kmh WNW 2.3 mph3.7 kmh 29.93 in1013.5 mb - 0.00 in0.0 mm 0.00 in0.0 mm
03:20 AM 42.3°F5.7°C 33.9°F1.1°C 72% 3.5 mph NNW5.6 kmh NNW 6.9 mph11.1 kmh 29.93 in1013.5 mb - 0.00 in0.0 mm 0.00 in0.0 mm
03:10 AM 42.8°F6.0°C 34.4°F1.3°C 72% 2.3 mph NNW3.7 kmh NNW 2.3 mph3.7 kmh 29.94 in1013.9 mb - 0.00 in0.0 mm 0.00 in0.0 mm
03:00 AM 43.0°F6.1°C 34.6°F1.4°C 72% 2.3 mph NW3.7 kmh NW 4.6 mph7.4 kmh 29.94 in1013.9 mb - 0.00 in0.0 mm 0.00 in0.0 mm
02:50 AM 43.2°F6.2°C 34.7°F1.5°C 72% 4.6 mph NNW7.4 kmh NNW 5.8 mph9.3 kmh 29.93 in1013.5 mb - 0.00 in0.0 mm 0.00 in0.0 mm
02:40 AM 43.3°F6.3°C 34.9°F1.6°C 72% 3.5 mph 5.6 kmh 2.3 mph3.7 kmh 29.93 in1013.5 mb - 0.00 in0.0 mm 0.00 in0.0 mm
02:30 AM 43.3°F6.3°C 34.6°F1.4°C 71% 2.3 mph NW3.7 kmh NW 4.6 mph7.4 kmh 29.94 in1013.9 mb - 0.00 in0.0 mm 0.00 in0.0 mm
02:20 AM 43.7°F6.5°C 34.9°F1.6°C 71% 3.5 mph NW5.6 kmh NW 3.5 mph5.6 kmh 29.94 in1013.9 mb - 0.00 in0.0 mm 0.00 in0.0 mm
02:10 AM 44.1°F6.7°C 35.3°F1.8°C 71% 3.5 mph NW5.6 kmh NW 6.9 mph11.1 kmh 29.94 in1013.9 mb - 0.00 in0.0 mm 0.00 in0.0 mm
02:00 AM 44.1°F6.7°C 35.3°F1.8°C 71% 3.5 mph NW5.6 kmh NW 4.6 mph7.4 kmh 29.94 in1013.9 mb - 0.00 in0.0 mm 0.00 in0.0 mm
01:50 AM 44.4°F6.9°C 35.2°F1.8°C 70% 3.5 mph NW5.6 kmh NW 6.9 mph11.1 kmh 29.95 in1014.2 mb - 0.00 in0.0 mm 0.00 in0.0 mm
01:40 AM 44.8°F7.1°C 35.6°F2.0°C 70% 2.3 mph NW3.7 kmh NW 2.3 mph3.7 kmh 29.95 in1014.2 mb - 0.00 in0.0 mm 0.00 in0.0 mm
01:30 AM 44.8°F7.1°C 35.6°F2.0°C 70% 2.3 mph NW3.7 kmh NW 4.6 mph7.4 kmh 29.95 in1014.2 mb - 0.00 in0.0 mm 0.00 in0.0 mm
01:20 AM 45.1°F7.3°C 35.9°F2.2°C 70% 2.3 mph NW3.7 kmh NW 3.5 mph5.6 kmh 29.95 in1014.2 mb - 0.00 in0.0 mm 0.00 in0.0 mm
01:10 AM 45.1°F7.3°C 35.9°F2.2°C 70% 2.3 mph WNW3.7 kmh WNW 3.5 mph5.6 kmh 29.95 in1014.2 mb - 0.00 in0.0 mm 0.00 in0.0 mm
01:00 AM 45.3°F7.4°C 35.7°F2.1°C 69% 2.3 mph NW3.7 kmh NW 3.5 mph5.6 kmh 29.95 in1014.2 mb - 0.00 in0.0 mm 0.00 in0.0 mm
12:50 AM 45.3°F7.4°C 35.7°F2.1°C 69% 2.3 mph NNW3.7 kmh NNW 4.6 mph7.4 kmh 29.95 in1014.2 mb - 0.00 in0.0 mm 0.00 in0.0 mm
12:40 AM 45.5°F7.5°C 35.9°F2.2°C 69% 2.3 mph NNW3.7 kmh NNW 4.6 mph7.4 kmh 29.95 in1014.2 mb - 0.00 in0.0 mm 0.00 in0.0 mm
12:30 AM 45.9°F7.7°C 36.3°F2.4°C 69% 2.3 mph NW3.7 kmh NW 3.5 mph5.6 kmh 29.95 in1014.2 mb - 0.00 in0.0 mm 0.00 in0.0 mm
12:20 AM 45.9°F7.7°C 36.3°F2.4°C 69% 3.5 mph NNW5.6 kmh NNW 5.8 mph9.3 kmh 29.95 in1014.2 mb - 0.00 in0.0 mm 0.00 in0.0 mm
12:10 AM 46.0°F7.8°C 36.4°F2.4°C 69% 2.3 mph WNW3.7 kmh WNW 2.3 mph3.7 kmh 29.96 in1014.6 mb - 0.00 in0.0 mm 0.00 in0.0 mm
12:00 AM 46.0°F7.8°C 36.4°F2.4°C 69% 2.3 mph NW3.7 kmh NW 3.5 mph5.6 kmh 29.96 in1014.6 mb - 0.00 in0.0 mm 0.00 in0.0 mm